sensor_id;sensor_type;location;lat;lon;timestamp;pressure;altitude;pressure_sealevel;temperature;humidity
67740;BME280;54536;50.090;14.420;2022-10-04T00:01:54;100020.00;;;15.67;56.77
67740;BME280;54536;50.090;14.420;2022-10-04T00:07:17;100014.06;;;15.55;56.70
67740;BME280;54536;50.090;14.420;2022-10-04T00:09:49;100020.94;;;15.66;56.67
67740;BME280;54536;50.090;14.420;2022-10-04T00:12:55;100020.72;;;15.59;56.94
67740;BME280;54536;50.090;14.420;2022-10-04T00:15:38;100007.63;;;15.58;56.45
67740;BME280;54536;50.090;14.420;2022-10-04T00:25:53;100007.47;;;15.59;57.03
67740;BME280;54536;50.090;14.420;2022-10-04T00:31:13;100005.28;;;15.55;57.14
67740;BME280;54536;50.090;14.420;2022-10-04T00:36:58;100000.81;;;15.55;57.12
67740;BME280;54536;50.090;14.420;2022-10-04T00:42:07;100000.16;;;15.53;56.83
67740;BME280;54536;50.090;14.420;2022-10-04T00:44:58;99997.31;;;15.55;57.48
67740;BME280;54536;50.090;14.420;2022-10-04T00:47:35;99995.97;;;15.51;57.29
67740;BME280;54536;50.090;14.420;2022-10-04T00:50:15;100000.97;;;15.54;56.85
67740;BME280;54536;50.090;14.420;2022-10-04T00:52:53;100000.97;;;15.54;56.81
67740;BME280;54536;50.090;14.420;2022-10-04T00:58:01;99987.84;;;15.52;56.96
67740;BME280;54536;50.090;14.420;2022-10-04T01:00:31;99998.75;;;15.49;57.37
67740;BME280;54536;50.090;14.420;2022-10-04T01:03:04;100005.75;;;15.50;56.75
67740;BME280;54536;50.090;14.420;2022-10-04T01:05:38;100004.19;;;15.65;57.39
67740;BME280;54536;50.090;14.420;2022-10-04T01:08:15;99993.47;;;15.49;57.32
67740;BME280;54536;50.090;14.420;2022-10-04T01:13:36;99993.84;;;15.54;56.60
67740;BME280;54536;50.090;14.420;2022-10-04T01:16:28;99989.94;;;15.40;56.97
67740;BME280;54536;50.090;14.420;2022-10-04T01:18:54;99983.69;;;15.50;57.54
67740;BME280;54536;50.090;14.420;2022-10-04T01:21:41;99985.16;;;15.44;57.72
67740;BME280;54536;50.090;14.420;2022-10-04T01:26:38;99986.66;;;15.46;57.38
67740;BME280;54536;50.090;14.420;2022-10-04T01:29:17;99985.06;;;15.54;57.68
67740;BME280;54536;50.090;14.420;2022-10-04T01:31:49;99986.13;;;15.61;56.91
67740;BME280;54536;50.090;14.420;2022-10-04T01:34:22;99988.91;;;15.77;57.06
67740;BME280;54536;50.090;14.420;2022-10-04T01:36:52;99990.78;;;15.85;57.02
67740;BME280;54536;50.090;14.420;2022-10-04T01:39:21;99982.81;;;15.85;56.45
67740;BME280;54536;50.090;14.420;2022-10-04T01:44:32;99982.69;;;15.86;56.45
67740;BME280;54536;50.090;14.420;2022-10-04T01:47:17;99977.63;;;16.01;56.43
67740;BME280;54536;50.090;14.420;2022-10-04T01:49:49;99975.91;;;15.92;55.92
67740;BME280;54536;50.090;14.420;2022-10-04T01:55:05;99977.47;;;15.77;56.84
67740;BME280;54536;50.090;14.420;2022-10-04T01:58:06;99971.81;;;15.98;55.81
67740;BME280;54536;50.090;14.420;2022-10-04T02:00:37;99973.41;;;16.17;55.40
67740;BME280;54536;50.090;14.420;2022-10-04T02:03:26;99972.06;;;15.86;56.44
67740;BME280;54536;50.090;14.420;2022-10-04T02:05:59;99970.03;;;15.80;56.57
67740;BME280;54536;50.090;14.420;2022-10-04T02:08:31;99973.16;;;16.02;55.65
67740;BME280;54536;50.090;14.420;2022-10-04T02:11:00;99967.31;;;15.98;55.57
67740;BME280;54536;50.090;14.420;2022-10-04T02:13:35;99969.53;;;16.03;55.79
67740;BME280;54536;50.090;14.420;2022-10-04T02:16:03;99967.19;;;16.00;55.86
67740;BME280;54536;50.090;14.420;2022-10-04T02:18:37;99964.56;;;15.82;56.67
67740;BME280;54536;50.090;14.420;2022-10-04T02:21:06;99980.28;;;15.75;57.01
67740;BME280;54536;50.090;14.420;2022-10-04T02:23:35;99974.03;;;15.84;56.44
67740;BME280;54536;50.090;14.420;2022-10-04T02:26:07;99977.31;;;15.78;56.41
67740;BME280;54536;50.090;14.420;2022-10-04T02:28:35;99973.31;;;15.74;56.55
67740;BME280;54536;50.090;14.420;2022-10-04T02:31:04;99973.00;;;15.77;56.28
67740;BME280;54536;50.090;14.420;2022-10-04T02:33:52;99975.75;;;15.94;56.80
67740;BME280;54536;50.090;14.420;2022-10-04T02:36:26;99967.81;;;15.94;56.26
67740;BME280;54536;50.090;14.420;2022-10-04T02:39:01;99971.66;;;15.73;56.78
67740;BME280;54536;50.090;14.420;2022-10-04T02:41:39;99964.59;;;15.64;56.48
67740;BME280;54536;50.090;14.420;2022-10-04T02:47:06;99961.38;;;15.70;57.15
67740;BME280;54536;50.090;14.420;2022-10-04T02:49:59;99974.22;;;15.83;56.66
67740;BME280;54536;50.090;14.420;2022-10-04T02:52:32;99966.41;;;15.63;57.11
67740;BME280;54536;50.090;14.420;2022-10-04T02:57:35;99960.13;;;15.64;57.02
67740;BME280;54536;50.090;14.420;2022-10-04T03:00:17;99965.22;;;15.58;57.54
67740;BME280;54536;50.090;14.420;2022-10-04T03:08:20;99962.69;;;15.56;57.55
67740;BME280;54536;50.090;14.420;2022-10-04T03:10:46;99960.56;;;15.78;57.14
67740;BME280;54536;50.090;14.420;2022-10-04T03:13:16;99962.25;;;15.61;56.90
67740;BME280;54536;50.090;14.420;2022-10-04T03:15:46;99963.19;;;15.70;56.77
67740;BME280;54536;50.090;14.420;2022-10-04T03:18:15;99962.75;;;15.82;56.56
67740;BME280;54536;50.090;14.420;2022-10-04T03:20:43;99964.00;;;15.96;56.18
67740;BME280;54536;50.090;14.420;2022-10-04T03:23:12;99966.56;;;15.62;57.13
67740;BME280;54536;50.090;14.420;2022-10-04T03:28:15;99965.56;;;15.63;57.03
67740;BME280;54536;50.090;14.420;2022-10-04T03:30:44;99958.72;;;15.70;56.93
67740;BME280;54536;50.090;14.420;2022-10-04T03:33:18;99957.56;;;15.55;57.14
67740;BME280;54536;50.090;14.420;2022-10-04T03:35:50;99958.25;;;15.57;57.75
67740;BME280;54536;50.090;14.420;2022-10-04T03:38:19;99955.44;;;15.58;57.76
67740;BME280;54536;50.090;14.420;2022-10-04T03:40:50;99956.72;;;15.72;57.11
67740;BME280;54536;50.090;14.420;2022-10-04T03:43:23;99958.09;;;15.58;57.19
67740;BME280;54536;50.090;14.420;2022-10-04T03:45:51;99956.44;;;15.57;57.25
67740;BME280;54536;50.090;14.420;2022-10-04T03:48:44;99955.88;;;15.72;57.55
67740;BME280;54536;50.090;14.420;2022-10-04T03:51:16;99958.91;;;15.77;56.92
67740;BME280;54536;50.090;14.420;2022-10-04T03:53:46;99961.66;;;15.67;57.34
67740;BME280;54536;50.090;14.420;2022-10-04T03:56:36;99963.84;;;15.72;57.02
67740;BME280;54536;50.090;14.420;2022-10-04T03:59:04;99956.75;;;15.54;57.90
67740;BME280;54536;50.090;14.420;2022-10-04T04:07:14;99965.69;;;15.53;57.83
67740;BME280;54536;50.090;14.420;2022-10-04T04:12:25;99962.03;;;15.54;57.41
67740;BME280;54536;50.090;14.420;2022-10-04T04:14:59;99963.56;;;15.57;57.08
67740;BME280;54536;50.090;14.420;2022-10-04T04:19:57;99960.44;;;15.61;57.37
67740;BME280;54536;50.090;14.420;2022-10-04T04:22:26;99951.34;;;15.64;57.73
67740;BME280;54536;50.090;14.420;2022-10-04T04:25:00;99964.06;;;15.60;58.11
67740;BME280;54536;50.090;14.420;2022-10-04T04:27:35;99960.13;;;15.64;57.62
67740;BME280;54536;50.090;14.420;2022-10-04T04:30:05;99966.03;;;15.58;57.93
67740;BME280;54536;50.090;14.420;2022-10-04T04:32:41;99970.13;;;15.53;57.19
67740;BME280;54536;50.090;14.420;2022-10-04T04:35:39;99972.31;;;15.75;57.84
67740;BME280;54536;50.090;14.420;2022-10-04T04:38:23;99973.44;;;15.73;57.66
67740;BME280;54536;50.090;14.420;2022-10-04T04:40:51;99964.44;;;15.65;57.39
67740;BME280;54536;50.090;14.420;2022-10-04T04:43:24;99967.91;;;15.66;56.88
67740;BME280;54536;50.090;14.420;2022-10-04T04:45:52;99976.13;;;15.55;57.46
67740;BME280;54536;50.090;14.420;2022-10-04T04:48:23;99971.13;;;15.70;56.88
67740;BME280;54536;50.090;14.420;2022-10-04T04:50:55;99977.94;;;15.72;57.08
67740;BME280;54536;50.090;14.420;2022-10-04T04:53:26;99976.28;;;15.71;56.84
67740;BME280;54536;50.090;14.420;2022-10-04T04:56:11;99966.34;;;15.73;57.25
67740;BME280;54536;50.090;14.420;2022-10-04T04:58:42;99974.22;;;15.65;57.36
67740;BME280;54536;50.090;14.420;2022-10-04T05:01:34;99979.03;;;15.43;57.31
67740;BME280;54536;50.090;14.420;2022-10-04T05:06:42;99982.28;;;15.37;57.86
67740;BME280;54536;50.090;14.420;2022-10-04T05:09:43;99980.44;;;15.20;57.97
67740;BME280;54536;50.090;14.420;2022-10-04T05:12:17;99986.91;;;15.35;57.57
67740;BME280;54536;50.090;14.420;2022-10-04T05:14:49;99988.09;;;15.41;57.79
67740;BME280;54536;50.090;14.420;2022-10-04T05:17:24;99988.56;;;15.36;58.08
67740;BME280;54536;50.090;14.420;2022-10-04T05:19:56;99987.59;;;15.37;57.94
67740;BME280;54536;50.090;14.420;2022-10-04T05:22:26;99993.03;;;15.36;57.63
67740;BME280;54536;50.090;14.420;2022-10-04T05:24:59;99989.16;;;15.30;57.71
67740;BME280;54536;50.090;14.420;2022-10-04T05:27:37;99987.41;;;15.39;58.27
67740;BME280;54536;50.090;14.420;2022-10-04T05:35:21;99983.94;;;15.38;58.21
67740;BME280;54536;50.090;14.420;2022-10-04T05:41:08;99987.28;;;15.40;57.30
67740;BME280;54536;50.090;14.420;2022-10-04T05:43:45;99987.94;;;15.60;57.05
67740;BME280;54536;50.090;14.420;2022-10-04T05:46:22;99988.09;;;15.77;57.07
67740;BME280;54536;50.090;14.420;2022-10-04T05:49:12;99985.72;;;15.56;57.58
67740;BME280;54536;50.090;14.420;2022-10-04T05:54:21;99997.72;;;15.60;57.03
67740;BME280;54536;50.090;14.420;2022-10-04T06:02:47;100013.63;;;15.60;56.73
67740;BME280;54536;50.090;14.420;2022-10-04T06:05:24;100011.44;;;15.73;56.96
67740;BME280;54536;50.090;14.420;2022-10-04T06:22:23;100030.25;;;15.88;56.18
67740;BME280;54536;50.090;14.420;2022-10-04T06:25:03;100029.94;;;15.91;56.47
67740;BME280;54536;50.090;14.420;2022-10-04T06:30:03;100037.81;;;16.01;55.40
67740;BME280;54536;50.090;14.420;2022-10-04T06:43:39;100038.91;;;16.16;56.23
67740;BME280;54536;50.090;14.420;2022-10-04T07:08:23;100056.91;;;16.30;56.01
67740;BME280;54536;50.090;14.420;2022-10-04T07:21:40;100072.91;;;16.47;54.77
67740;BME280;54536;50.090;14.420;2022-10-04T07:24:12;100074.53;;;16.39;55.08
67740;BME280;54536;50.090;14.420;2022-10-04T07:26:48;100071.88;;;16.74;54.43
67740;BME280;54536;50.090;14.420;2022-10-04T07:29:28;100079.81;;;16.92;53.41
67740;BME280;54536;50.090;14.420;2022-10-04T07:32:13;100074.88;;;17.13;52.95
67740;BME280;54536;50.090;14.420;2022-10-04T07:34:53;100079.22;;;17.22;53.39
67740;BME280;54536;50.090;14.420;2022-10-04T07:37:20;100075.59;;;17.31;52.89
67740;BME280;54536;50.090;14.420;2022-10-04T07:40:07;100081.38;;;17.19;52.30
67740;BME280;54536;50.090;14.420;2022-10-04T07:43:01;100079.09;;;17.32;51.93
67740;BME280;54536;50.090;14.420;2022-10-04T07:45:34;100079.91;;;17.24;52.01
67740;BME280;54536;50.090;14.420;2022-10-04T07:48:17;100077.91;;;17.18;52.20
67740;BME280;54536;50.090;14.420;2022-10-04T07:53:40;100081.34;;;17.02;51.99
67740;BME280;54536;50.090;14.420;2022-10-04T08:01:42;100087.56;;;17.27;51.62
67740;BME280;54536;50.090;14.420;2022-10-04T08:04:38;100086.41;;;17.38;51.31
67740;BME280;54536;50.090;14.420;2022-10-04T08:07:35;100086.41;;;17.38;51.15
67740;BME280;54536;50.090;14.420;2022-10-04T08:13:05;100082.59;;;17.41;50.46
67740;BME280;54536;50.090;14.420;2022-10-04T08:15:37;100088.94;;;17.64;51.18
67740;BME280;54536;50.090;14.420;2022-10-04T08:37:34;100099.44;;;17.66;49.52
67740;BME280;54536;50.090;14.420;2022-10-04T08:46:05;100095.78;;;17.91;49.27
67740;BME280;54536;50.090;14.420;2022-10-04T08:51:37;100092.97;;;17.85;48.66
67740;BME280;54536;50.090;14.420;2022-10-04T08:56:54;100096.47;;;18.01;48.66
67740;BME280;54536;50.090;14.420;2022-10-04T09:13:52;100095.44;;;18.27;47.07
67740;BME280;54536;50.090;14.420;2022-10-04T09:16:52;100104.53;;;18.57;46.89
67740;BME280;54536;50.090;14.420;2022-10-04T09:19:53;100105.19;;;18.59;47.21
67740;BME280;54536;50.090;14.420;2022-10-04T09:22:38;100099.22;;;18.49;47.65
67740;BME280;54536;50.090;14.420;2022-10-04T09:47:22;100111.72;;;18.40;46.78
67740;BME280;54536;50.090;14.420;2022-10-04T10:01:32;100115.69;;;18.77;45.47
67740;BME280;54536;50.090;14.420;2022-10-04T10:04:05;100116.84;;;18.75;45.39
67740;BME280;54536;50.090;14.420;2022-10-04T10:16:10;100110.69;;;18.74;45.46
67740;BME280;54536;50.090;14.420;2022-10-04T10:20:09;100112.50;;;18.74;45.11
67740;BME280;54536;50.090;14.420;2022-10-04T11:13:17;100108.06;;;21.68;37.47
67740;BME280;54536;50.090;14.420;2022-10-04T11:30:17;100115.34;;;20.49;40.38
67740;BME280;54536;50.090;14.420;2022-10-04T11:41:41;100100.28;;;21.52;38.02
67740;BME280;54536;50.090;14.420;2022-10-04T11:44:37;100110.28;;;21.86;36.67
67740;BME280;54536;50.090;14.420;2022-10-04T11:50:06;100117.13;;;21.01;38.99
67740;BME280;54536;50.090;14.420;2022-10-04T11:59:03;100108.81;;;22.33;36.21
67740;BME280;54536;50.090;14.420;2022-10-04T12:04:50;100100.13;;;21.60;36.75
67740;BME280;54536;50.090;14.420;2022-10-04T12:07:44;100094.69;;;21.68;37.20
67740;BME280;54536;50.090;14.420;2022-10-04T12:10:23;100101.84;;;21.89;37.06
67740;BME280;54536;50.090;14.420;2022-10-04T12:12:56;100092.84;;;21.97;36.47
67740;BME280;54536;50.090;14.420;2022-10-04T12:19:15;100095.09;;;21.93;37.08
67740;BME280;54536;50.090;14.420;2022-10-04T12:25:07;100075.41;;;24.13;32.50
67740;BME280;54536;50.090;14.420;2022-10-04T12:32:57;100077.69;;;24.10;32.57
67740;BME280;54536;50.090;14.420;2022-10-04T12:43:38;100088.81;;;22.29;35.73
67740;BME280;54536;50.090;14.420;2022-10-04T12:46:12;100074.50;;;22.15;36.07
67740;BME280;54536;50.090;14.420;2022-10-04T12:51:42;100067.47;;;21.93;36.87
67740;BME280;54536;50.090;14.420;2022-10-04T13:00:17;100065.09;;;21.77;37.60
67740;BME280;54536;50.090;14.420;2022-10-04T13:03:13;100063.06;;;21.79;37.61
67740;BME280;54536;50.090;14.420;2022-10-04T13:06:04;100067.69;;;21.70;36.84
67740;BME280;54536;50.090;14.420;2022-10-04T13:09:04;100064.91;;;21.78;36.70
67740;BME280;54536;50.090;14.420;2022-10-04T13:16:53;100064.88;;;21.35;36.38
67740;BME280;54536;50.090;14.420;2022-10-04T13:19:39;100060.72;;;21.33;36.87
67740;BME280;54536;50.090;14.420;2022-10-04T13:24:54;100068.75;;;20.96;37.40
67740;BME280;54536;50.090;14.420;2022-10-04T13:30:23;100063.31;;;20.90;37.67
67740;BME280;54536;50.090;14.420;2022-10-04T13:35:35;100059.38;;;20.71;38.75
67740;BME280;54536;50.090;14.420;2022-10-04T13:46:29;100048.59;;;20.64;39.15
67740;BME280;54536;50.090;14.420;2022-10-04T13:54:21;100054.38;;;20.38;39.33
67740;BME280;54536;50.090;14.420;2022-10-04T14:06:24;100059.44;;;20.18;38.87
67740;BME280;54536;50.090;14.420;2022-10-04T14:17:43;100060.88;;;20.06;38.81
67740;BME280;54536;50.090;14.420;2022-10-04T14:31:34;100056.00;;;19.95;39.56
67740;BME280;54536;50.090;14.420;2022-10-04T14:37:02;100051.38;;;19.88;39.49
67740;BME280;54536;50.090;14.420;2022-10-04T14:45:31;100065.69;;;19.87;40.17
67740;BME280;54536;50.090;14.420;2022-10-04T14:48:17;100055.75;;;19.81;40.45
67740;BME280;54536;50.090;14.420;2022-10-04T14:51:19;100057.47;;;19.74;41.10
67740;BME280;54536;50.090;14.420;2022-10-04T14:56:47;100046.53;;;19.69;40.51
67740;BME280;54536;50.090;14.420;2022-10-04T14:59:24;100053.50;;;19.70;40.85
67740;BME280;54536;50.090;14.420;2022-10-04T15:07:22;100057.75;;;19.56;41.00
67740;BME280;54536;50.090;14.420;2022-10-04T15:13:08;100054.28;;;19.56;41.12
67740;BME280;54536;50.090;14.420;2022-10-04T15:36:26;100052.81;;;19.45;41.79
67740;BME280;54536;50.090;14.420;2022-10-04T15:39:02;100046.03;;;19.42;41.97
67740;BME280;54536;50.090;14.420;2022-10-04T15:41:36;100051.72;;;19.39;41.82
67740;BME280;54536;50.090;14.420;2022-10-04T16:06:26;100041.34;;;19.45;43.54
67740;BME280;54536;50.090;14.420;2022-10-04T16:12:30;100045.28;;;19.26;43.38
67740;BME280;54536;50.090;14.420;2022-10-04T16:15:31;100041.28;;;19.30;43.74
67740;BME280;54536;50.090;14.420;2022-10-04T16:32:21;100042.72;;;19.09;43.87
67740;BME280;54536;50.090;14.420;2022-10-04T16:34:52;100039.75;;;19.04;44.78
67740;BME280;54536;50.090;14.420;2022-10-04T16:37:37;100035.25;;;19.05;44.47
67740;BME280;54536;50.090;14.420;2022-10-04T16:56:20;100037.56;;;18.68;46.70
67740;BME280;54536;50.090;14.420;2022-10-04T16:58:59;100046.09;;;18.72;47.20
67740;BME280;54536;50.090;14.420;2022-10-04T17:02:03;100050.56;;;18.63;47.15
67740;BME280;54536;50.090;14.420;2022-10-04T17:12:32;100045.81;;;18.42;47.79
67740;BME280;54536;50.090;14.420;2022-10-04T17:15:24;100046.66;;;18.43;47.98
67740;BME280;54536;50.090;14.420;2022-10-04T17:18:14;100037.34;;;18.31;48.26
67740;BME280;54536;50.090;14.420;2022-10-04T17:20:57;100044.50;;;18.38;48.85
67740;BME280;54536;50.090;14.420;2022-10-04T17:32:30;100043.72;;;18.21;50.06
67740;BME280;54536;50.090;14.420;2022-10-04T17:43:37;100046.75;;;17.94;50.55
67740;BME280;54536;50.090;14.420;2022-10-04T17:49:02;100050.41;;;17.93;50.61
67740;BME280;54536;50.090;14.420;2022-10-04T17:51:55;100050.75;;;17.90;50.28
67740;BME280;54536;50.090;14.420;2022-10-04T17:54:59;100045.56;;;17.88;50.63
67740;BME280;54536;50.090;14.420;2022-10-04T17:58:52;100060.06;;;17.86;50.62
67740;BME280;54536;50.090;14.420;2022-10-04T18:01:17;100067.03;;;17.95;51.33
67740;BME280;54536;50.090;14.420;2022-10-04T18:06:38;100057.22;;;17.95;52.58
67740;BME280;54536;50.090;14.420;2022-10-04T18:11:55;100063.38;;;17.88;51.36
67740;BME280;54536;50.090;14.420;2022-10-04T18:17:04;100073.81;;;17.57;52.45
67740;BME280;54536;50.090;14.420;2022-10-04T18:24:36;100056.88;;;17.49;51.80
67740;BME280;54536;50.090;14.420;2022-10-04T18:27:16;100059.34;;;17.51;51.99
67740;BME280;54536;50.090;14.420;2022-10-04T18:34:57;100067.94;;;17.28;53.00
67740;BME280;54536;50.090;14.420;2022-10-04T18:37:33;100066.75;;;17.23;53.14
67740;BME280;54536;50.090;14.420;2022-10-04T18:40:20;100076.38;;;17.16;53.83
67740;BME280;54536;50.090;14.420;2022-10-04T18:42:58;100080.06;;;17.15;53.95
67740;BME280;54536;50.090;14.420;2022-10-04T18:45:32;100079.41;;;17.21;54.15
67740;BME280;54536;50.090;14.420;2022-10-04T18:48:01;100097.00;;;17.14;54.03
67740;BME280;54536;50.090;14.420;2022-10-04T18:50:36;100093.59;;;16.95;55.20
67740;BME280;54536;50.090;14.420;2022-10-04T18:55:48;100094.91;;;16.91;55.47
67740;BME280;54536;50.090;14.420;2022-10-04T19:27:09;100142.06;;;16.89;55.10
67740;BME280;54536;50.090;14.420;2022-10-04T19:41:30;100140.72;;;16.67;56.24
67740;BME280;54536;50.090;14.420;2022-10-04T19:57:49;100121.31;;;16.41;56.98
67740;BME280;54536;50.090;14.420;2022-10-04T20:00:15;100126.63;;;16.41;56.67
67740;BME280;54536;50.090;14.420;2022-10-04T20:02:45;100129.16;;;16.42;56.65
67740;BME280;54536;50.090;14.420;2022-10-04T20:05:20;100126.63;;;16.41;57.13
67740;BME280;54536;50.090;14.420;2022-10-04T20:07:54;100129.28;;;16.41;56.61
67740;BME280;54536;50.090;14.420;2022-10-04T20:10:37;100129.78;;;16.18;57.78
67740;BME280;54536;50.090;14.420;2022-10-04T20:21:04;100135.00;;;15.84;59.24
67740;BME280;54536;50.090;14.420;2022-10-04T20:26:33;100133.47;;;15.81;58.72
67740;BME280;54536;50.090;14.420;2022-10-04T20:35:09;100133.53;;;15.72;58.96
67740;BME280;54536;50.090;14.420;2022-10-04T20:45:48;100144.97;;;15.72;59.35
67740;BME280;54536;50.090;14.420;2022-10-04T20:48:27;100144.47;;;15.86;58.63
67740;BME280;54536;50.090;14.420;2022-10-04T20:50:54;100152.19;;;15.80;58.80
67740;BME280;54536;50.090;14.420;2022-10-04T20:53:24;100151.59;;;15.58;58.60
67740;BME280;54536;50.090;14.420;2022-10-04T20:58:50;100160.09;;;15.44;59.43
67740;BME280;54536;50.090;14.420;2022-10-04T21:01:30;100158.28;;;15.62;59.62
67740;BME280;54536;50.090;14.420;2022-10-04T21:07:01;100162.59;;;15.63;59.05
67740;BME280;54536;50.090;14.420;2022-10-04T21:09:29;100170.97;;;15.41;59.13
67740;BME280;54536;50.090;14.420;2022-10-04T21:11:58;100168.09;;;15.52;59.42
67740;BME280;54536;50.090;14.420;2022-10-04T21:14:29;100176.31;;;15.31;60.20
67740;BME280;54536;50.090;14.420;2022-10-04T21:16:56;100177.50;;;15.19;60.14
67740;BME280;54536;50.090;14.420;2022-10-04T21:27:09;100201.78;;;15.14;60.46
67740;BME280;54536;50.090;14.420;2022-10-04T21:29:36;100199.69;;;15.18;60.11
67740;BME280;54536;50.090;14.420;2022-10-04T21:32:04;100196.44;;;15.24;59.78
67740;BME280;54536;50.090;14.420;2022-10-04T21:34:30;100197.50;;;15.04;60.28
67740;BME280;54536;50.090;14.420;2022-10-04T21:36:56;100194.69;;;15.15;60.38
67740;BME280;54536;50.090;14.420;2022-10-04T21:39:23;100205.59;;;15.02;60.41
67740;BME280;54536;50.090;14.420;2022-10-04T21:41:50;100198.59;;;15.11;59.83
67740;BME280;54536;50.090;14.420;2022-10-04T21:44:16;100201.91;;;15.13;59.90
67740;BME280;54536;50.090;14.420;2022-10-04T21:46:42;100199.25;;;14.85;60.97
67740;BME280;54536;50.090;14.420;2022-10-04T21:49:08;100196.16;;;14.90;59.98
67740;BME280;54536;50.090;14.420;2022-10-04T21:51:34;100192.16;;;14.76;60.80
67740;BME280;54536;50.090;14.420;2022-10-04T21:54:02;100199.06;;;14.96;59.93
67740;BME280;54536;50.090;14.420;2022-10-04T21:56:29;100194.13;;;15.11;59.90
67740;BME280;54536;50.090;14.420;2022-10-04T21:58:55;100201.34;;;15.19;59.22
67740;BME280;54536;50.090;14.420;2022-10-04T22:01:22;100205.56;;;15.12;58.66
67740;BME280;54536;50.090;14.420;2022-10-04T22:03:48;100209.75;;;15.14;59.05
67740;BME280;54536;50.090;14.420;2022-10-04T22:06:14;100211.72;;;15.03;58.75
67740;BME280;54536;50.090;14.420;2022-10-04T22:08:40;100216.22;;;14.92;59.87
67740;BME280;54536;50.090;14.420;2022-10-04T22:11:09;100216.50;;;14.89;59.69
67740;BME280;54536;50.090;14.420;2022-10-04T22:13:35;100214.59;;;14.72;60.46
67740;BME280;54536;50.090;14.420;2022-10-04T22:16:03;100215.16;;;14.75;60.23
67740;BME280;54536;50.090;14.420;2022-10-04T22:18:30;100217.13;;;14.64;60.28
67740;BME280;54536;50.090;14.420;2022-10-04T22:20:57;100216.84;;;14.57;59.88
67740;BME280;54536;50.090;14.420;2022-10-04T22:23:26;100211.81;;;14.35;61.27
67740;BME280;54536;50.090;14.420;2022-10-04T22:25:53;100214.47;;;14.44;60.86
67740;BME280;54536;50.090;14.420;2022-10-04T22:28:26;100208.22;;;14.36;61.11
67740;BME280;54536;50.090;14.420;2022-10-04T22:30:53;100214.63;;;14.43;60.36
67740;BME280;54536;50.090;14.420;2022-10-04T22:33:33;100214.63;;;14.33;60.74
67740;BME280;54536;50.090;14.420;2022-10-04T22:36:19;100200.41;;;14.24;60.68
67740;BME280;54536;50.090;14.420;2022-10-04T22:38:59;100208.50;;;14.03;61.35
67740;BME280;54536;50.090;14.420;2022-10-04T22:46:41;100197.38;;;14.29;60.46
67740;BME280;54536;50.090;14.420;2022-10-04T22:49:28;100202.06;;;14.25;60.14
67740;BME280;54536;50.090;14.420;2022-10-04T22:51:57;100206.69;;;14.33;60.06
67740;BME280;54536;50.090;14.420;2022-10-04T22:54:27;100208.63;;;14.41;60.58
67740;BME280;54536;50.090;14.420;2022-10-04T22:56:56;100200.56;;;14.33;60.37
67740;BME280;54536;50.090;14.420;2022-10-04T22:59:36;100197.50;;;14.27;60.55
67740;BME280;54536;50.090;14.420;2022-10-04T23:04:44;100205.44;;;14.08;60.39
67740;BME280;54536;50.090;14.420;2022-10-04T23:07:11;100199.31;;;14.08;60.91
67740;BME280;54536;50.090;14.420;2022-10-04T23:09:37;100194.03;;;14.17;60.54
67740;BME280;54536;50.090;14.420;2022-10-04T23:12:06;100193.72;;;14.30;59.54
67740;BME280;54536;50.090;14.420;2022-10-04T23:14:35;100195.28;;;14.33;60.03
67740;BME280;54536;50.090;14.420;2022-10-04T23:17:16;100201.78;;;14.19;59.90
67740;BME280;54536;50.090;14.420;2022-10-04T23:19:44;100202.66;;;14.19;60.16
67740;BME280;54536;50.090;14.420;2022-10-04T23:22:16;100212.25;;;14.11;59.94
67740;BME280;54536;50.090;14.420;2022-10-04T23:24:43;100216.72;;;14.10;60.10
67740;BME280;54536;50.090;14.420;2022-10-04T23:27:16;100204.88;;;14.24;60.27
67740;BME280;54536;50.090;14.420;2022-10-04T23:29:45;100205.44;;;14.27;59.47
67740;BME280;54536;50.090;14.420;2022-10-04T23:32:16;100201.53;;;14.12;60.45
67740;BME280;54536;50.090;14.420;2022-10-04T23:34:45;100201.25;;;14.05;60.34
67740;BME280;54536;50.090;14.420;2022-10-04T23:37:16;100187.63;;;13.91;60.36
67740;BME280;54536;50.090;14.420;2022-10-04T23:39:44;100180.78;;;14.17;59.59
67740;BME280;54536;50.090;14.420;2022-10-04T23:42:24;100172.84;;;14.17;59.60
67740;BME280;54536;50.090;14.420;2022-10-04T23:44:57;100162.56;;;14.04;59.87
67740;BME280;54536;50.090;14.420;2022-10-04T23:47:29;100164.66;;;14.11;59.78
67740;BME280;54536;50.090;14.420;2022-10-04T23:49:57;100162.97;;;13.80;60.51
67740;BME280;54536;50.090;14.420;2022-10-04T23:52:30;100167.16;;;13.73;61.65
67740;BME280;54536;50.090;14.420;2022-10-04T23:54:58;100165.88;;;13.68;61.40
67740;BME280;54536;50.090;14.420;2022-10-04T23:57:27;100172.69;;;13.61;61.70
67740;BME280;54536;50.090;14.420;2022-10-04T23:59:54;100171.03;;;13.79;60.62
